sensor_id;sensor_type;location;lat;lon;timestamp;pressure;altitude;pressure_sealevel;temperature;humidity
80509;BME280;69838;52.602;13.434;2024-02-04T00:00:18;101059.19;;;6.05;100.00
80509;BME280;69838;52.602;13.434;2024-02-04T00:01:04;101046.03;;;5.95;100.00
80509;BME280;69838;52.602;13.434;2024-02-04T00:01:50;101046.09;;;5.91;100.00
80509;BME280;69838;52.602;13.434;2024-02-04T00:02:36;101061.38;;;5.88;100.00
80509;BME280;69838;52.602;13.434;2024-02-04T00:03:23;101059.66;;;5.85;100.00
80509;BME280;69838;52.602;13.434;2024-02-04T00:04:09;101061.19;;;5.96;100.00
80509;BME280;69838;52.602;13.434;2024-02-04T00:04:56;101062.09;;;5.95;100.00
80509;BME280;69838;52.602;13.434;2024-02-04T00:05:41;101062.97;;;5.97;100.00
80509;BME280;69838;52.602;13.434;2024-02-04T00:06:27;101066.47;;;6.00;100.00
80509;BME280;69838;52.602;13.434;2024-02-04T00:07:15;101063.75;;;6.02;100.00
80509;BME280;69838;52.602;13.434;2024-02-04T00:08:03;101061.88;;;6.05;100.00
80509;BME280;69838;52.602;13.434;2024-02-04T00:08:49;101045.75;;;6.07;100.00
80509;BME280;69838;52.602;13.434;2024-02-04T00:09:35;101065.34;;;6.09;100.00
80509;BME280;69838;52.602;13.434;2024-02-04T00:10:20;101053.75;;;6.08;100.00
80509;BME280;69838;52.602;13.434;2024-02-04T00:11:06;101062.78;;;6.04;100.00
80509;BME280;69838;52.602;13.434;2024-02-04T00:11:53;101053.13;;;5.97;100.00
80509;BME280;69838;52.602;13.434;2024-02-04T00:12:39;101073.53;;;6.03;100.00
80509;BME280;69838;52.602;13.434;2024-02-04T00:13:24;101071.88;;;5.97;100.00
80509;BME280;69838;52.602;13.434;2024-02-04T00:14:11;101073.59;;;6.01;100.00
80509;BME280;69838;52.602;13.434;2024-02-04T00:14:57;101069.09;;;6.02;100.00
80509;BME280;69838;52.602;13.434;2024-02-04T00:15:43;101075.31;;;6.04;100.00
80509;BME280;69838;52.602;13.434;2024-02-04T00:16:29;101071.66;;;6.06;100.00
80509;BME280;69838;52.602;13.434;2024-02-04T00:17:14;101065.34;;;6.09;100.00
80509;BME280;69838;52.602;13.434;2024-02-04T00:18:00;101064.53;;;6.07;100.00
80509;BME280;69838;52.602;13.434;2024-02-04T00:18:46;101065.44;;;6.06;100.00
80509;BME280;69838;52.602;13.434;2024-02-04T00:19:32;101056.44;;;6.08;100.00
80509;BME280;69838;52.602;13.434;2024-02-04T00:20:17;101056.44;;;6.08;100.00
80509;BME280;69838;52.602;13.434;2024-02-04T00:21:04;101063.75;;;6.02;100.00
80509;BME280;69838;52.602;13.434;2024-02-04T00:21:50;101065.44;;;6.06;100.00
80509;BME280;69838;52.602;13.434;2024-02-04T00:22:35;101063.75;;;6.02;100.00
80509;BME280;69838;52.602;13.434;2024-02-04T00:23:23;101069.03;;;6.05;100.00
80509;BME280;69838;52.602;13.434;2024-02-04T00:24:08;101069.97;;;6.02;100.00
80509;BME280;69838;52.602;13.434;2024-02-04T00:24:54;101061.91;;;6.04;100.00
80509;BME280;69838;52.602;13.434;2024-02-04T00:25:46;101066.41;;;6.03;100.00
80509;BME280;69838;52.602;13.434;2024-02-04T00:26:31;101068.28;;;6.00;100.00
80509;BME280;69838;52.602;13.434;2024-02-04T00:27:17;101067.44;;;5.98;100.00
80509;BME280;69838;52.602;13.434;2024-02-04T00:28:04;101062.88;;;6.01;100.00
80509;BME280;69838;52.602;13.434;2024-02-04T00:28:50;101068.25;;;6.01;100.00
80509;BME280;69838;52.602;13.434;2024-02-04T00:29:35;101066.50;;;5.99;100.00
80509;BME280;69838;52.602;13.434;2024-02-04T00:30:22;101073.69;;;5.97;100.00
80509;BME280;69838;52.602;13.434;2024-02-04T00:31:07;101069.22;;;5.97;100.00
80509;BME280;69838;52.602;13.434;2024-02-04T00:31:52;101069.25;;;5.96;100.00
80509;BME280;69838;52.602;13.434;2024-02-04T00:32:39;101071.91;;;5.96;100.00
80509;BME280;69838;52.602;13.434;2024-02-04T00:33:24;101074.66;;;5.92;100.00
80509;BME280;69838;52.602;13.434;2024-02-04T00:34:10;101075.59;;;5.90;100.00
80509;BME280;69838;52.602;13.434;2024-02-04T00:34:56;101076.56;;;5.87;100.00
80509;BME280;69838;52.602;13.434;2024-02-04T00:35:42;101064.19;;;5.82;100.00
80509;BME280;69838;52.602;13.434;2024-02-04T00:36:27;101064.34;;;5.76;100.00
80509;BME280;69838;52.602;13.434;2024-02-04T00:37:14;101066.16;;;5.73;100.00
80509;BME280;69838;52.602;13.434;2024-02-04T00:37:59;101071.44;;;5.78;100.00
80509;BME280;69838;52.602;13.434;2024-02-04T00:38:46;101065.41;;;5.68;100.00
80509;BME280;69838;52.602;13.434;2024-02-04T00:39:32;101057.38;;;5.67;100.00
80509;BME280;69838;52.602;13.434;2024-02-04T00:40:18;101053.84;;;5.66;100.00
80509;BME280;69838;52.602;13.434;2024-02-04T00:41:04;101034.19;;;5.67;100.00
80509;BME280;69838;52.602;13.434;2024-02-04T00:41:50;101039.28;;;5.78;100.00
80509;BME280;69838;52.602;13.434;2024-02-04T00:42:36;101042.00;;;5.77;100.00
80509;BME280;69838;52.602;13.434;2024-02-04T00:43:22;101047.53;;;5.69;100.00
80509;BME280;69838;52.602;13.434;2024-02-04T00:44:08;101051.13;;;5.68;100.00
80509;BME280;69838;52.602;13.434;2024-02-04T00:44:53;101047.72;;;5.60;100.00
80509;BME280;69838;52.602;13.434;2024-02-04T00:45:39;101052.22;;;5.59;100.00
80509;BME280;69838;52.602;13.434;2024-02-04T00:46:25;101047.78;;;5.58;100.00
80509;BME280;69838;52.602;13.434;2024-02-04T00:47:10;101038.75;;;5.62;100.00
80509;BME280;69838;52.602;13.434;2024-02-04T00:47:58;101037.94;;;5.59;100.00
80509;BME280;69838;52.602;13.434;2024-02-04T00:48:44;101022.19;;;5.45;100.00
80509;BME280;69838;52.602;13.434;2024-02-04T00:49:29;101040.75;;;5.52;100.00
80509;BME280;69838;52.602;13.434;2024-02-04T00:50:15;101034.59;;;5.49;100.00
80509;BME280;69838;52.602;13.434;2024-02-04T00:51:01;101031.91;;;5.49;100.00
80509;BME280;69838;52.602;13.434;2024-02-04T00:51:46;101038.06;;;5.52;100.00
80509;BME280;69838;52.602;13.434;2024-02-04T00:52:33;101034.56;;;5.50;100.00
80509;BME280;69838;52.602;13.434;2024-02-04T00:53:18;101037.38;;;5.46;100.00
80509;BME280;69838;52.602;13.434;2024-02-04T00:54:05;101044.66;;;5.38;100.00
80509;BME280;69838;52.602;13.434;2024-02-04T00:54:51;101052.91;;;5.28;100.00
80509;BME280;69838;52.602;13.434;2024-02-04T00:55:37;101053.09;;;5.21;100.00
80509;BME280;69838;52.602;13.434;2024-02-04T00:56:22;101055.66;;;5.24;100.00
80509;BME280;69838;52.602;13.434;2024-02-04T00:57:09;101047.47;;;5.33;100.00
80509;BME280;69838;52.602;13.434;2024-02-04T00:57:54;101045.78;;;5.27;100.00
80509;BME280;69838;52.602;13.434;2024-02-04T00:58:40;101043.91;;;5.31;100.00
80509;BME280;69838;52.602;13.434;2024-02-04T00:59:27;101039.53;;;5.28;100.00
80509;BME280;69838;52.602;13.434;2024-02-04T01:00:13;101040.53;;;5.23;100.00
80509;BME280;69838;52.602;13.434;2024-02-04T01:00:59;101029.09;;;5.16;100.00
80509;BME280;69838;52.602;13.434;2024-02-04T01:01:45;101017.41;;;5.19;100.00
80509;BME280;69838;52.602;13.434;2024-02-04T01:02:30;101034.25;;;5.24;100.00
80509;BME280;69838;52.602;13.434;2024-02-04T01:03:17;101038.91;;;5.15;100.00
80509;BME280;69838;52.602;13.434;2024-02-04T01:04:02;101006.06;;;5.07;100.00
80509;BME280;69838;52.602;13.434;2024-02-04T01:04:48;101034.44;;;5.16;100.00
80509;BME280;69838;52.602;13.434;2024-02-04T01:05:35;101033.63;;;5.12;100.00
80509;BME280;69838;52.602;13.434;2024-02-04T01:06:21;101033.69;;;5.09;100.00
80509;BME280;69838;52.602;13.434;2024-02-04T01:07:07;101032.84;;;5.07;100.00
80509;BME280;69838;52.602;13.434;2024-02-04T01:07:53;101030.94;;;5.12;100.00
80509;BME280;69838;52.602;13.434;2024-02-04T01:08:38;101019.44;;;5.07;100.00
80509;BME280;69838;52.602;13.434;2024-02-04T01:09:27;101025.75;;;5.05;100.00
80509;BME280;69838;52.602;13.434;2024-02-04T01:10:12;101023.94;;;5.07;100.00
80509;BME280;69838;52.602;13.434;2024-02-04T01:10:58;101025.78;;;5.03;100.00
80509;BME280;69838;52.602;13.434;2024-02-04T01:11:44;101024.19;;;4.94;100.00
80509;BME280;69838;52.602;13.434;2024-02-04T01:12:29;101032.28;;;4.90;100.00
80509;BME280;69838;52.602;13.434;2024-02-04T01:13:15;101033.19;;;4.90;100.00
80509;BME280;69838;52.602;13.434;2024-02-04T01:14:01;101041.13;;;4.95;100.00
80509;BME280;69838;52.602;13.434;2024-02-04T01:14:47;101027.66;;;5.00;100.00
80509;BME280;69838;52.602;13.434;2024-02-04T01:15:32;101039.28;;;4.97;100.00
80509;BME280;69838;52.602;13.434;2024-02-04T01:16:18;101038.41;;;4.96;100.00
80509;BME280;69838;52.602;13.434;2024-02-04T01:17:04;101041.06;;;4.98;100.00
80509;BME280;69838;52.602;13.434;2024-02-04T01:17:49;101042.88;;;4.96;100.00
80509;BME280;69838;52.602;13.434;2024-02-04T01:18:36;101041.19;;;4.92;100.00
80509;BME280;69838;52.602;13.434;2024-02-04T01:19:22;101031.22;;;4.98;100.00
80509;BME280;69838;52.602;13.434;2024-02-04T01:20:09;101039.28;;;4.97;100.00
80509;BME280;69838;52.602;13.434;2024-02-04T01:20:55;101043.91;;;4.90;100.00
80509;BME280;69838;52.602;13.434;2024-02-04T01:21:41;101051.16;;;4.84;100.00
80509;BME280;69838;52.602;13.434;2024-02-04T01:22:26;101051.25;;;4.79;100.00
80509;BME280;69838;52.602;13.434;2024-02-04T01:23:13;101046.66;;;4.86;100.00
80509;BME280;69838;52.602;13.434;2024-02-04T01:23:58;101038.63;;;4.86;100.00
80509;BME280;69838;52.602;13.434;2024-02-04T01:24:46;101063.56;;;4.86;100.00
80509;BME280;69838;52.602;13.434;2024-02-04T01:25:33;101059.75;;;5.00;100.00
80509;BME280;69838;52.602;13.434;2024-02-04T01:26:19;101050.88;;;4.99;100.00
80509;BME280;69838;52.602;13.434;2024-02-04T01:27:05;101058.94;;;4.96;100.00
80509;BME280;69838;52.602;13.434;2024-02-04T01:27:51;101057.13;;;4.98;100.00
80509;BME280;69838;52.602;13.434;2024-02-04T01:28:37;101022.78;;;4.76;100.00
80509;BME280;69838;52.602;13.434;2024-02-04T01:29:23;101051.97;;;4.89;100.00
80509;BME280;69838;52.602;13.434;2024-02-04T01:30:08;101038.53;;;4.92;100.00
80509;BME280;69838;52.602;13.434;2024-02-04T01:30:55;101046.47;;;4.95;100.00
80509;BME280;69838;52.602;13.434;2024-02-04T01:31:40;101021.94;;;4.74;100.00
80509;BME280;69838;52.602;13.434;2024-02-04T01:32:26;101046.56;;;4.92;100.00
80509;BME280;69838;52.602;13.434;2024-02-04T01:33:12;101042.25;;;4.85;100.00
80509;BME280;69838;52.602;13.434;2024-02-04T01:33:58;101046.84;;;4.76;100.00
80509;BME280;69838;52.602;13.434;2024-02-04T01:34:43;101037.84;;;4.81;100.00
80509;BME280;69838;52.602;13.434;2024-02-04T01:35:30;101042.25;;;4.85;100.00
80509;BME280;69838;52.602;13.434;2024-02-04T01:36:15;101032.69;;;4.71;100.00
80509;BME280;69838;52.602;13.434;2024-02-04T01:37:01;101043.38;;;4.71;100.00
80509;BME280;69838;52.602;13.434;2024-02-04T01:37:47;101042.59;;;4.65;100.00
80509;BME280;69838;52.602;13.434;2024-02-04T01:38:33;101044.34;;;4.67;100.00
80509;BME280;69838;52.602;13.434;2024-02-04T01:39:19;101043.44;;;4.68;100.00
80509;BME280;69838;52.602;13.434;2024-02-04T01:40:08;101035.59;;;4.59;100.00
80509;BME280;69838;52.602;13.434;2024-02-04T01:40:53;101047.09;;;4.64;100.00
80509;BME280;69838;52.602;13.434;2024-02-04T01:41:39;101047.22;;;4.58;100.00
80509;BME280;69838;52.602;13.434;2024-02-04T01:42:25;101035.75;;;4.51;100.00
80509;BME280;69838;52.602;13.434;2024-02-04T01:43:11;101039.38;;;4.49;100.00
80509;BME280;69838;52.602;13.434;2024-02-04T01:43:56;101036.53;;;4.58;100.00
80509;BME280;69838;52.602;13.434;2024-02-04T01:44:42;101035.63;;;4.57;100.00
80509;BME280;69838;52.602;13.434;2024-02-04T01:45:28;101042.88;;;4.52;100.00
80509;BME280;69838;52.602;13.434;2024-02-04T01:46:13;101034.91;;;4.48;100.00
80509;BME280;69838;52.602;13.434;2024-02-04T01:47:00;101039.41;;;4.47;100.00
80509;BME280;69838;52.602;13.434;2024-02-04T01:47:45;101039.31;;;4.50;100.00
80509;BME280;69838;52.602;13.434;2024-02-04T01:48:31;101036.63;;;4.52;100.00
80509;BME280;69838;52.602;13.434;2024-02-04T01:49:17;101034.88;;;4.51;100.00
80509;BME280;69838;52.602;13.434;2024-02-04T01:50:04;101039.28;;;4.52;100.00
80509;BME280;69838;52.602;13.434;2024-02-04T01:50:50;101039.25;;;4.53;100.00
80509;BME280;69838;52.602;13.434;2024-02-04T01:51:37;101023.44;;;4.41;100.00
80509;BME280;69838;52.602;13.434;2024-02-04T01:52:23;101038.34;;;4.56;100.00
80509;BME280;69838;52.602;13.434;2024-02-04T01:53:09;101040.13;;;4.55;100.00
80509;BME280;69838;52.602;13.434;2024-02-04T01:53:56;101041.97;;;4.52;100.00
80509;BME280;69838;52.602;13.434;2024-02-04T01:54:41;101046.59;;;4.44;100.00
80509;BME280;69838;52.602;13.434;2024-02-04T01:55:29;101043.09;;;4.40;100.00
80509;BME280;69838;52.602;13.434;2024-02-04T01:56:15;101041.91;;;4.55;100.00
80509;BME280;69838;52.602;13.434;2024-02-04T01:57:02;101049.03;;;4.56;100.00
80509;BME280;69838;52.602;13.434;2024-02-04T01:57:48;101044.59;;;4.55;100.00
80509;BME280;69838;52.602;13.434;2024-02-04T01:58:34;101045.56;;;4.51;100.00
80509;BME280;69838;52.602;13.434;2024-02-04T01:59:21;101041.97;;;4.52;100.00
80509;BME280;69838;52.602;13.434;2024-02-04T02:00:13;101020.69;;;4.46;100.00
80509;BME280;69838;52.602;13.434;2024-02-04T02:01:00;101042.03;;;4.49;100.00
80509;BME280;69838;52.602;13.434;2024-02-04T02:01:47;101034.16;;;4.39;100.00
80509;BME280;69838;52.602;13.434;2024-02-04T02:02:34;101039.63;;;4.35;100.00
80509;BME280;69838;52.602;13.434;2024-02-04T02:03:26;101037.88;;;4.32;100.00
80509;BME280;69838;52.602;13.434;2024-02-04T02:04:11;101037.94;;;4.29;100.00
80509;BME280;69838;52.602;13.434;2024-02-04T02:04:58;101036.25;;;4.24;100.00
80509;BME280;69838;52.602;13.434;2024-02-04T02:05:45;101048.75;;;4.21;100.00
80509;BME280;69838;52.602;13.434;2024-02-04T02:06:31;101063.09;;;4.16;100.00
80509;BME280;69838;52.602;13.434;2024-02-04T02:07:18;101061.25;;;4.19;100.00
80509;BME280;69838;52.602;13.434;2024-02-04T02:08:06;101067.63;;;4.12;100.00
80509;BME280;69838;52.602;13.434;2024-02-04T02:08:52;101075.47;;;4.21;100.00
80509;BME280;69838;52.602;13.434;2024-02-04T02:09:39;101063.03;;;4.20;100.00
80509;BME280;69838;52.602;13.434;2024-02-04T02:10:25;101062.88;;;4.30;100.00
80509;BME280;69838;52.602;13.434;2024-02-04T02:11:18;101046.78;;;4.33;100.00
80509;BME280;69838;52.602;13.434;2024-02-04T02:12:11;101052.03;;;4.37;100.00
80509;BME280;69838;52.602;13.434;2024-02-04T02:12:59;101052.19;;;4.30;100.00
80509;BME280;69838;52.602;13.434;2024-02-04T02:13:50;101044.31;;;4.22;100.00
80509;BME280;69838;52.602;13.434;2024-02-04T02:14:42;101032.69;;;4.23;100.00
80509;BME280;69838;52.602;13.434;2024-02-04T02:15:32;101042.69;;;4.12;100.00
80509;BME280;69838;52.602;13.434;2024-02-04T02:16:23;101042.72;;;4.10;100.00
80509;BME280;69838;52.602;13.434;2024-02-04T02:17:12;101030.09;;;4.20;100.00
80509;BME280;69838;52.602;13.434;2024-02-04T02:18:08;101038.97;;;4.22;100.00
80509;BME280;69838;52.602;13.434;2024-02-04T02:19:00;101028.34;;;4.16;100.00
80509;BME280;69838;52.602;13.434;2024-02-04T02:19:54;101027.28;;;4.28;100.00
80509;BME280;69838;52.602;13.434;2024-02-04T02:20:55;101030.91;;;4.24;100.00
80509;BME280;69838;52.602;13.434;2024-02-04T02:21:54;101024.75;;;4.20;100.00
80509;BME280;69838;52.602;13.434;2024-02-04T02:22:48;101030.31;;;4.06;100.00
80509;BME280;69838;52.602;13.434;2024-02-04T02:23:42;101021.47;;;4.04;100.00
80509;BME280;69838;52.602;13.434;2024-02-04T02:24:34;101025.06;;;4.00;100.00
80509;BME280;69838;52.602;13.434;2024-02-04T02:25:20;101021.44;;;4.06;100.00
80509;BME280;69838;52.602;13.434;2024-02-04T02:26:06;101018.03;;;3.94;100.00
80509;BME280;69838;52.602;13.434;2024-02-04T02:26:53;101020.06;;;3.80;100.00
80509;BME280;69838;52.602;13.434;2024-02-04T02:27:46;101016.53;;;3.78;100.00
80509;BME280;69838;52.602;13.434;2024-02-04T02:28:31;101027.06;;;3.87;100.00
80509;BME280;69838;52.602;13.434;2024-02-04T02:29:18;101023.53;;;3.85;100.00
80509;BME280;69838;52.602;13.434;2024-02-04T02:30:04;101025.16;;;3.95;100.00
80509;BME280;69838;52.602;13.434;2024-02-04T02:30:50;101030.38;;;4.01;100.00
80509;BME280;69838;52.602;13.434;2024-02-04T02:31:38;101030.47;;;3.98;100.00
80509;BME280;69838;52.602;13.434;2024-02-04T02:32:25;101016.53;;;3.78;100.00
80509;BME280;69838;52.602;13.434;2024-02-04T02:33:11;101026.16;;;3.90;100.00
80509;BME280;69838;52.602;13.434;2024-02-04T02:33:57;101036.75;;;3.94;100.00
80509;BME280;69838;52.602;13.434;2024-02-04T02:34:43;101035.03;;;3.92;100.00
80509;BME280;69838;52.602;13.434;2024-02-04T02:35:29;101029.72;;;3.89;100.00
80509;BME280;69838;52.602;13.434;2024-02-04T02:36:21;101032.22;;;3.99;100.00
80509;BME280;69838;52.602;13.434;2024-02-04T02:37:14;101027.84;;;3.95;100.00
80509;BME280;69838;52.602;13.434;2024-02-04T02:38:07;101036.47;;;4.13;100.00
80509;BME280;69838;52.602;13.434;2024-02-04T02:39:01;101027.69;;;4.05;100.00
80509;BME280;69838;52.602;13.434;2024-02-04T02:39:57;101023.34;;;3.97;100.00
80509;BME280;69838;52.602;13.434;2024-02-04T02:40:45;101013.66;;;3.92;100.00
80509;BME280;69838;52.602;13.434;2024-02-04T02:41:34;101030.31;;;4.08;100.00
80509;BME280;69838;52.602;13.434;2024-02-04T02:42:22;101036.56;;;4.05;100.00
80509;BME280;69838;52.602;13.434;2024-02-04T02:43:10;101040.13;;;4.06;100.00
80509;BME280;69838;52.602;13.434;2024-02-04T02:43:59;101039.34;;;4.00;100.00
80509;BME280;69838;52.602;13.434;2024-02-04T02:44:46;101043.84;;;3.97;100.00
80509;BME280;69838;52.602;13.434;2024-02-04T02:45:32;101035.84;;;3.95;100.00
80509;BME280;69838;52.602;13.434;2024-02-04T02:46:20;101034.03;;;3.97;100.00
80509;BME280;69838;52.602;13.434;2024-02-04T02:47:06;101044.69;;;4.00;100.00
80509;BME280;69838;52.602;13.434;2024-02-04T02:47:54;101041.22;;;3.92;100.00
80509;BME280;69838;52.602;13.434;2024-02-04T02:48:41;101034.03;;;3.97;100.00
80509;BME280;69838;52.602;13.434;2024-02-04T02:49:26;101034.03;;;3.97;100.00
80509;BME280;69838;52.602;13.434;2024-02-04T02:50:13;101035.81;;;3.98;100.00
80509;BME280;69838;52.602;13.434;2024-02-04T02:50:59;101031.34;;;3.99;100.00
80509;BME280;69838;52.602;13.434;2024-02-04T02:51:45;101029.50;;;4.01;100.00
80509;BME280;69838;52.602;13.434;2024-02-04T02:52:30;101025.75;;;4.13;100.00
80509;BME280;69838;52.602;13.434;2024-02-04T02:53:17;101026.66;;;4.12;100.00
80509;BME280;69838;52.602;13.434;2024-02-04T02:54:04;101027.50;;;4.15;100.00
80509;BME280;69838;52.602;13.434;2024-02-04T02:54:51;101030.13;;;4.17;100.00
80509;BME280;69838;52.602;13.434;2024-02-04T02:55:38;101028.31;;;4.19;100.00
80509;BME280;69838;52.602;13.434;2024-02-04T02:56:23;101029.25;;;4.16;100.00
80509;BME280;69838;52.602;13.434;2024-02-04T02:57:10;101029.22;;;4.18;100.00
80509;BME280;69838;52.602;13.434;2024-02-04T02:57:55;101027.31;;;4.25;100.00
80509;BME280;69838;52.602;13.434;2024-02-04T02:58:40;101006.75;;;4.28;100.00
80509;BME280;69838;52.602;13.434;2024-02-04T02:59:27;101025.88;;;4.55;100.00
80509;BME280;69838;52.602;13.434;2024-02-04T03:00:14;101017.78;;;4.59;100.00
80509;BME280;69838;52.602;13.434;2024-02-04T03:00:59;101022.16;;;4.62;100.00
80509;BME280;69838;52.602;13.434;2024-02-04T03:01:45;101025.69;;;4.64;100.00
80509;BME280;69838;52.602;13.434;2024-02-04T03:02:31;101031.88;;;4.66;100.00
80509;BME280;69838;52.602;13.434;2024-02-04T03:03:16;101020.47;;;4.58;100.00
80509;BME280;69838;52.602;13.434;2024-02-04T03:04:03;101022.22;;;4.59;100.00
80509;BME280;69838;52.602;13.434;2024-02-04T03:04:48;101022.31;;;4.56;100.00
80509;BME280;69838;52.602;13.434;2024-02-04T03:05:34;101024.03;;;4.58;100.00
80509;BME280;69838;52.602;13.434;2024-02-04T03:06:20;101017.81;;;4.58;100.00
80509;BME280;69838;52.602;13.434;2024-02-04T03:07:06;101020.47;;;4.58;100.00
80509;BME280;69838;52.602;13.434;2024-02-04T03:07:52;100989.22;;;4.60;100.00
80509;BME280;69838;52.602;13.434;2024-02-04T03:08:39;101009.34;;;4.80;100.00
80509;BME280;69838;52.602;13.434;2024-02-04T03:09:24;101001.44;;;4.73;100.00
80509;BME280;69838;52.602;13.434;2024-02-04T03:10:10;101013.84;;;4.77;100.00
80509;BME280;69838;52.602;13.434;2024-02-04T03:10:57;101023.56;;;4.82;100.00
80509;BME280;69838;52.602;13.434;2024-02-04T03:11:43;101014.75;;;4.76;100.00
80509;BME280;69838;52.602;13.434;2024-02-04T03:12:28;101019.97;;;4.83;100.00
80509;BME280;69838;52.602;13.434;2024-02-04T03:13:15;101012.81;;;4.85;100.00
80509;BME280;69838;52.602;13.434;2024-02-04T03:14:00;101004.81;;;4.83;100.00
80509;BME280;69838;52.602;13.434;2024-02-04T03:14:47;101011.09;;;4.81;100.00
80509;BME280;69838;52.602;13.434;2024-02-04T03:15:32;101008.41;;;4.81;100.00
80509;BME280;69838;52.602;13.434;2024-02-04T03:16:18;101025.25;;;4.86;100.00
80509;BME280;69838;52.602;13.434;2024-02-04T03:17:04;101009.22;;;4.84;100.00
80509;BME280;69838;52.602;13.434;2024-02-04T03:17:49;101012.88;;;4.82;100.00
80509;BME280;69838;52.602;13.434;2024-02-04T03:18:36;101011.09;;;4.81;100.00
80509;BME280;69838;52.602;13.434;2024-02-04T03:19:22;101010.06;;;4.86;100.00
80509;BME280;69838;52.602;13.434;2024-02-04T03:20:09;101003.84;;;4.86;100.00
80509;BME280;69838;52.602;13.434;2024-02-04T03:20:55;101004.69;;;4.88;100.00
80509;BME280;69838;52.602;13.434;2024-02-04T03:21:41;101008.34;;;4.85;100.00
80509;BME280;69838;52.602;13.434;2024-02-04T03:22:26;101015.41;;;4.88;100.00
80509;BME280;69838;52.602;13.434;2024-02-04T03:23:12;101001.19;;;4.86;100.00
80509;BME280;69838;52.602;13.434;2024-02-04T03:23:58;101013.50;;;4.94;100.00
80509;BME280;69838;52.602;13.434;2024-02-04T03:24:43;101009.09;;;4.92;100.00
80509;BME280;69838;52.602;13.434;2024-02-04T03:25:30;101004.63;;;4.92;100.00
80509;BME280;69838;52.602;13.434;2024-02-04T03:26:17;101009.00;;;4.95;100.00
80509;BME280;69838;52.602;13.434;2024-02-04T03:27:04;101001.91;;;4.94;100.00
80509;BME280;69838;52.602;13.434;2024-02-04T03:27:50;101004.59;;;4.94;100.00
80509;BME280;69838;52.602;13.434;2024-02-04T03:28:38;101002.81;;;4.93;100.00
80509;BME280;69838;52.602;13.434;2024-02-04T03:29:23;101003.75;;;4.92;100.00
80509;BME280;69838;52.602;13.434;2024-02-04T03:30:10;100996.47;;;4.97;100.00
80509;BME280;69838;52.602;13.434;2024-02-04T03:30:55;101002.75;;;4.96;100.00
80509;BME280;69838;52.602;13.434;2024-02-04T03:31:41;101006.31;;;4.96;100.00
80509;BME280;69838;52.602;13.434;2024-02-04T03:32:27;101009.00;;;4.95;100.00
80509;BME280;69838;52.602;13.434;2024-02-04T03:33:18;100997.41;;;4.96;100.00
80509;BME280;69838;52.602;13.434;2024-02-04T03:34:04;100998.25;;;4.98;100.00
80509;BME280;69838;52.602;13.434;2024-02-04T03:34:50;101000.09;;;4.94;100.00
80509;BME280;69838;52.602;13.434;2024-02-04T03:35:35;101002.78;;;4.94;100.00
80509;BME280;69838;52.602;13.434;2024-02-04T03:36:23;100996.56;;;4.94;100.00
80509;BME280;69838;52.602;13.434;2024-02-04T03:37:10;100996.56;;;4.94;100.00
80509;BME280;69838;52.602;13.434;2024-02-04T03:37:55;100994.72;;;4.96;100.00
80509;BME280;69838;52.602;13.434;2024-02-04T03:38:41;100998.31;;;4.95;100.00
80509;BME280;69838;52.602;13.434;2024-02-04T03:39:27;100994.78;;;4.93;100.00
80509;BME280;69838;52.602;13.434;2024-02-04T03:40:13;100979.56;;;4.96;100.00
80509;BME280;69838;52.602;13.434;2024-02-04T03:40:58;100991.19;;;4.95;100.00
80509;BME280;69838;52.602;13.434;2024-02-04T03:41:46;100977.00;;;4.92;100.00
80509;BME280;69838;52.602;13.434;2024-02-04T03:42:31;100986.75;;;4.93;100.00
80509;BME280;69838;52.602;13.434;2024-02-04T03:43:17;100992.13;;;4.93;100.00
80509;BME280;69838;52.602;13.434;2024-02-04T03:44:03;100977.13;;;4.84;100.00
80509;BME280;69838;52.602;13.434;2024-02-04T03:44:49;100985.84;;;4.94;100.00
80509;BME280;69838;52.602;13.434;2024-02-04T03:45:35;100990.13;;;5.03;100.00
80509;BME280;69838;52.602;13.434;2024-02-04T03:46:22;100986.50;;;5.05;100.00
80509;BME280;69838;52.602;13.434;2024-02-04T03:47:07;100983.00;;;5.02;100.00
80509;BME280;69838;52.602;13.434;2024-02-04T03:47:53;100991.06;;;5.00;100.00
80509;BME280;69838;52.602;13.434;2024-02-04T03:48:39;100994.69;;;4.99;100.00
80509;BME280;69838;52.602;13.434;2024-02-04T03:49:25;100974.31;;;4.92;100.00
80509;BME280;69838;52.602;13.434;2024-02-04T03:50:10;100980.41;;;4.98;100.00
80509;BME280;69838;52.602;13.434;2024-02-04T03:50:57;100987.53;;;4.98;100.00
80509;BME280;69838;52.602;13.434;2024-02-04T03:51:42;100965.53;;;4.85;100.00
80509;BME280;69838;52.602;13.434;2024-02-04T03:52:27;100973.44;;;4.90;100.00
80509;BME280;69838;52.602;13.434;2024-02-04T03:53:14;100977.88;;;4.92;100.00
80509;BME280;69838;52.602;13.434;2024-02-04T03:53:59;100964.56;;;4.88;100.00
80509;BME280;69838;52.602;13.434;2024-02-04T03:54:45;100966.38;;;4.87;100.00
80509;BME280;69838;52.602;13.434;2024-02-04T03:55:31;100977.16;;;4.83;100.00
80509;BME280;69838;52.602;13.434;2024-02-04T03:56:16;100954.41;;;4.63;100.00
80509;BME280;69838;52.602;13.434;2024-02-04T03:57:04;100975.41;;;4.82;100.00
80509;BME280;69838;52.602;13.434;2024-02-04T03:57:51;100978.16;;;4.78;100.00
80509;BME280;69838;52.602;13.434;2024-02-04T03:58:37;100980.00;;;4.75;100.00
80509;BME280;69838;52.602;13.434;2024-02-04T03:59:22;100977.38;;;4.72;100.00
80509;BME280;69838;52.602;13.434;2024-02-04T04:00:09;100966.84;;;4.64;100.00
80509;BME280;69838;52.602;13.434;2024-02-04T04:00:55;100969.56;;;4.63;100.00